sensor_id;sensor_type;location;lat;lon;timestamp;P1;durP1;ratioP1;P2;durP2;ratioP2
45236;SDS011;30973;51.442;3.580;2022-09-21T00:03:36;5.25;;;3.03;;
45236;SDS011;30973;51.442;3.580;2022-09-21T00:06:04;4.97;;;3.20;;
45236;SDS011;30973;51.442;3.580;2022-09-21T00:08:32;7.75;;;3.20;;
45236;SDS011;30973;51.442;3.580;2022-09-21T00:11:00;5.00;;;3.15;;
45236;SDS011;30973;51.442;3.580;2022-09-21T00:13:28;5.97;;;2.83;;
45236;SDS011;30973;51.442;3.580;2022-09-21T00:15:55;6.45;;;3.08;;
45236;SDS011;30973;51.442;3.580;2022-09-21T00:18:23;5.82;;;3.55;;
45236;SDS011;30973;51.442;3.580;2022-09-21T00:20:50;6.80;;;3.55;;
45236;SDS011;30973;51.442;3.580;2022-09-21T00:23:18;4.72;;;2.90;;
45236;SDS011;30973;51.442;3.580;2022-09-21T00:25:45;4.70;;;2.80;;
45236;SDS011;30973;51.442;3.580;2022-09-21T00:28:13;5.63;;;3.30;;
45236;SDS011;30973;51.442;3.580;2022-09-21T00:30:40;4.53;;;2.50;;
45236;SDS011;30973;51.442;3.580;2022-09-21T00:33:07;8.10;;;3.22;;
45236;SDS011;30973;51.442;3.580;2022-09-21T00:35:35;5.72;;;2.70;;
45236;SDS011;30973;51.442;3.580;2022-09-21T00:38:02;8.95;;;3.20;;
45236;SDS011;30973;51.442;3.580;2022-09-21T00:40:30;4.85;;;2.80;;
45236;SDS011;30973;51.442;3.580;2022-09-21T00:43:14;5.80;;;3.08;;
45236;SDS011;30973;51.442;3.580;2022-09-21T00:45:42;5.05;;;3.25;;
45236;SDS011;30973;51.442;3.580;2022-09-21T00:48:10;4.53;;;3.10;;
45236;SDS011;30973;51.442;3.580;2022-09-21T00:50:38;6.05;;;3.13;;
45236;SDS011;30973;51.442;3.580;2022-09-21T00:53:08;6.50;;;2.90;;
45236;SDS011;30973;51.442;3.580;2022-09-21T00:55:38;10.27;;;3.38;;
45236;SDS011;30973;51.442;3.580;2022-09-21T00:58:09;7.53;;;3.17;;
45236;SDS011;30973;51.442;3.580;2022-09-21T01:00:38;5.65;;;3.03;;
45236;SDS011;30973;51.442;3.580;2022-09-21T01:03:05;6.88;;;3.10;;
45236;SDS011;30973;51.442;3.580;2022-09-21T01:05:33;5.72;;;2.92;;
45236;SDS011;30973;51.442;3.580;2022-09-21T01:08:02;8.40;;;3.00;;
45236;SDS011;30973;51.442;3.580;2022-09-21T01:10:31;6.15;;;2.97;;
45236;SDS011;30973;51.442;3.580;2022-09-21T01:13:03;3.53;;;2.38;;
45236;SDS011;30973;51.442;3.580;2022-09-21T01:23:30;5.30;;;2.72;;
45236;SDS011;30973;51.442;3.580;2022-09-21T01:31:27;6.05;;;2.60;;
45236;SDS011;30973;51.442;3.580;2022-09-21T01:33:56;4.68;;;2.45;;
45236;SDS011;30973;51.442;3.580;2022-09-21T01:36:26;4.57;;;2.58;;
45236;SDS011;30973;51.442;3.580;2022-09-21T01:38:55;4.93;;;2.75;;
45236;SDS011;30973;51.442;3.580;2022-09-21T01:41:23;7.32;;;3.13;;
45236;SDS011;30973;51.442;3.580;2022-09-21T01:44:01;5.82;;;2.75;;
45236;SDS011;30973;51.442;3.580;2022-09-21T01:46:33;5.88;;;2.70;;
45236;SDS011;30973;51.442;3.580;2022-09-21T01:49:05;4.80;;;2.78;;
45236;SDS011;30973;51.442;3.580;2022-09-21T01:51:36;4.63;;;2.78;;
45236;SDS011;30973;51.442;3.580;2022-09-21T01:54:13;9.30;;;3.20;;
45236;SDS011;30973;51.442;3.580;2022-09-21T01:56:46;5.15;;;2.78;;
45236;SDS011;30973;51.442;3.580;2022-09-21T01:59:21;6.43;;;2.78;;
45236;SDS011;30973;51.442;3.580;2022-09-21T02:01:53;4.88;;;2.15;;
45236;SDS011;30973;51.442;3.580;2022-09-21T02:04:22;4.50;;;2.38;;
45236;SDS011;30973;51.442;3.580;2022-09-21T02:06:51;4.78;;;2.45;;
45236;SDS011;30973;51.442;3.580;2022-09-21T02:09:19;5.95;;;2.42;;
45236;SDS011;30973;51.442;3.580;2022-09-21T02:11:46;4.63;;;2.22;;
45236;SDS011;30973;51.442;3.580;2022-09-21T02:14:19;6.35;;;2.95;;
45236;SDS011;30973;51.442;3.580;2022-09-21T02:16:51;9.40;;;2.93;;
45236;SDS011;30973;51.442;3.580;2022-09-21T02:24:24;7.10;;;2.47;;
45236;SDS011;30973;51.442;3.580;2022-09-21T02:26:55;6.53;;;2.80;;
45236;SDS011;30973;51.442;3.580;2022-09-21T02:29:27;7.28;;;2.38;;
45236;SDS011;30973;51.442;3.580;2022-09-21T02:34:32;5.03;;;2.10;;
45236;SDS011;30973;51.442;3.580;2022-09-21T02:39:32;4.95;;;2.53;;
45236;SDS011;30973;51.442;3.580;2022-09-21T02:42:11;4.05;;;2.13;;
45236;SDS011;30973;51.442;3.580;2022-09-21T02:44:43;5.88;;;2.00;;
45236;SDS011;30973;51.442;3.580;2022-09-21T02:47:13;4.40;;;1.40;;
45236;SDS011;30973;51.442;3.580;2022-09-21T02:49:49;7.47;;;2.10;;
45236;SDS011;30973;51.442;3.580;2022-09-21T02:52:18;3.67;;;1.80;;
45236;SDS011;30973;51.442;3.580;2022-09-21T02:54:47;4.18;;;1.90;;
45236;SDS011;30973;51.442;3.580;2022-09-21T02:57:16;5.55;;;1.70;;
45236;SDS011;30973;51.442;3.580;2022-09-21T02:59:44;5.18;;;1.70;;
45236;SDS011;30973;51.442;3.580;2022-09-21T03:02:11;4.55;;;1.73;;
45236;SDS011;30973;51.442;3.580;2022-09-21T03:04:39;5.07;;;1.70;;
45236;SDS011;30973;51.442;3.580;2022-09-21T03:07:07;4.07;;;1.50;;
45236;SDS011;30973;51.442;3.580;2022-09-21T03:09:34;4.43;;;2.40;;
45236;SDS011;30973;51.442;3.580;2022-09-21T03:12:02;4.85;;;1.80;;
45236;SDS011;30973;51.442;3.580;2022-09-21T03:14:29;4.68;;;1.88;;
45236;SDS011;30973;51.442;3.580;2022-09-21T03:16:58;3.63;;;1.80;;
45236;SDS011;30973;51.442;3.580;2022-09-21T03:19:25;5.03;;;1.92;;
45236;SDS011;30973;51.442;3.580;2022-09-21T03:21:54;4.90;;;2.20;;
45236;SDS011;30973;51.442;3.580;2022-09-21T03:24:22;8.10;;;1.90;;
45236;SDS011;30973;51.442;3.580;2022-09-21T03:27:08;3.67;;;2.00;;
45236;SDS011;30973;51.442;3.580;2022-09-21T03:29:35;4.88;;;2.03;;
45236;SDS011;30973;51.442;3.580;2022-09-21T03:32:03;3.53;;;2.10;;
45236;SDS011;30973;51.442;3.580;2022-09-21T03:34:30;4.57;;;1.65;;
45236;SDS011;30973;51.442;3.580;2022-09-21T03:37:02;4.82;;;2.10;;
45236;SDS011;30973;51.442;3.580;2022-09-21T03:39:30;5.30;;;1.88;;
45236;SDS011;30973;51.442;3.580;2022-09-21T03:41:58;5.57;;;1.60;;
45236;SDS011;30973;51.442;3.580;2022-09-21T03:44:25;8.18;;;1.50;;
45236;SDS011;30973;51.442;3.580;2022-09-21T03:46:52;4.53;;;1.38;;
45236;SDS011;30973;51.442;3.580;2022-09-21T03:49:20;3.13;;;0.95;;
45236;SDS011;30973;51.442;3.580;2022-09-21T03:51:47;9.32;;;1.52;;
45236;SDS011;30973;51.442;3.580;2022-09-21T03:54:14;3.47;;;1.10;;
45236;SDS011;30973;51.442;3.580;2022-09-21T03:56:42;4.55;;;1.20;;
45236;SDS011;30973;51.442;3.580;2022-09-21T03:59:10;7.35;;;1.33;;
45236;SDS011;30973;51.442;3.580;2022-09-21T04:01:39;5.18;;;1.42;;
45236;SDS011;30973;51.442;3.580;2022-09-21T04:04:07;9.73;;;1.60;;
45236;SDS011;30973;51.442;3.580;2022-09-21T04:06:35;5.50;;;1.23;;
45236;SDS011;30973;51.442;3.580;2022-09-21T04:09:02;7.00;;;1.10;;
45236;SDS011;30973;51.442;3.580;2022-09-21T04:11:30;8.32;;;1.45;;
45236;SDS011;30973;51.442;3.580;2022-09-21T04:13:57;5.88;;;1.30;;
45236;SDS011;30973;51.442;3.580;2022-09-21T04:16:25;4.38;;;1.13;;
45236;SDS011;30973;51.442;3.580;2022-09-21T04:18:53;5.07;;;1.20;;
45236;SDS011;30973;51.442;3.580;2022-09-21T04:21:20;3.85;;;1.00;;
45236;SDS011;30973;51.442;3.580;2022-09-21T04:23:47;6.30;;;1.23;;
45236;SDS011;30973;51.442;3.580;2022-09-21T04:26:25;3.22;;;1.15;;
45236;SDS011;30973;51.442;3.580;2022-09-21T04:28:53;3.20;;;1.20;;
45236;SDS011;30973;51.442;3.580;2022-09-21T04:31:21;5.63;;;1.40;;
45236;SDS011;30973;51.442;3.580;2022-09-21T04:33:50;4.95;;;1.45;;
45236;SDS011;30973;51.442;3.580;2022-09-21T04:36:18;4.43;;;1.30;;
45236;SDS011;30973;51.442;3.580;2022-09-21T04:38:46;2.65;;;1.25;;
45236;SDS011;30973;51.442;3.580;2022-09-21T04:41:14;4.65;;;1.42;;
45236;SDS011;30973;51.442;3.580;2022-09-21T04:43:42;4.25;;;1.15;;
45236;SDS011;30973;51.442;3.580;2022-09-21T04:46:10;6.30;;;1.45;;
45236;SDS011;30973;51.442;3.580;2022-09-21T04:48:38;4.68;;;1.48;;
45236;SDS011;30973;51.442;3.580;2022-09-21T04:51:05;8.48;;;1.58;;
45236;SDS011;30973;51.442;3.580;2022-09-21T04:53:34;2.92;;;1.23;;
45236;SDS011;30973;51.442;3.580;2022-09-21T04:56:02;3.42;;;1.33;;
45236;SDS011;30973;51.442;3.580;2022-09-21T04:58:30;2.70;;;1.20;;
45236;SDS011;30973;51.442;3.580;2022-09-21T05:00:58;4.55;;;1.30;;
45236;SDS011;30973;51.442;3.580;2022-09-21T05:03:25;3.33;;;1.30;;
45236;SDS011;30973;51.442;3.580;2022-09-21T05:05:54;3.80;;;1.23;;
45236;SDS011;30973;51.442;3.580;2022-09-21T05:08:25;5.30;;;1.50;;
45236;SDS011;30973;51.442;3.580;2022-09-21T05:11:12;3.67;;;1.40;;
45236;SDS011;30973;51.442;3.580;2022-09-21T05:13:41;6.18;;;1.30;;
45236;SDS011;30973;51.442;3.580;2022-09-21T05:16:08;2.70;;;1.30;;
45236;SDS011;30973;51.442;3.580;2022-09-21T05:18:35;4.10;;;1.50;;
45236;SDS011;30973;51.442;3.580;2022-09-21T05:21:03;4.53;;;1.23;;
45236;SDS011;30973;51.442;3.580;2022-09-21T05:23:31;3.95;;;1.60;;
45236;SDS011;30973;51.442;3.580;2022-09-21T05:25:59;7.70;;;1.70;;
45236;SDS011;30973;51.442;3.580;2022-09-21T05:28:26;5.53;;;1.88;;
45236;SDS011;30973;51.442;3.580;2022-09-21T05:31:03;7.13;;;1.85;;
45236;SDS011;30973;51.442;3.580;2022-09-21T05:33:46;4.40;;;1.90;;
45236;SDS011;30973;51.442;3.580;2022-09-21T05:39:03;4.75;;;2.00;;
45236;SDS011;30973;51.442;3.580;2022-09-21T05:41:30;4.43;;;2.17;;
45236;SDS011;30973;51.442;3.580;2022-09-21T05:43:58;5.85;;;2.20;;
45236;SDS011;30973;51.442;3.580;2022-09-21T05:48:59;4.45;;;2.08;;
45236;SDS011;30973;51.442;3.580;2022-09-21T05:51:33;6.20;;;2.30;;
45236;SDS011;30973;51.442;3.580;2022-09-21T05:54:14;3.78;;;2.38;;
45236;SDS011;30973;51.442;3.580;2022-09-21T05:56:47;5.38;;;2.17;;
45236;SDS011;30973;51.442;3.580;2022-09-21T06:04:29;6.93;;;2.22;;
45236;SDS011;30973;51.442;3.580;2022-09-21T06:06:56;5.65;;;2.72;;
45236;SDS011;30973;51.442;3.580;2022-09-21T06:09:24;6.07;;;2.35;;
45236;SDS011;30973;51.442;3.580;2022-09-21T06:11:52;9.48;;;2.67;;
45236;SDS011;30973;51.442;3.580;2022-09-21T06:14:19;7.53;;;2.80;;
45236;SDS011;30973;51.442;3.580;2022-09-21T06:16:51;10.32;;;2.47;;
45236;SDS011;30973;51.442;3.580;2022-09-21T06:19:18;10.20;;;2.80;;
45236;SDS011;30973;51.442;3.580;2022-09-21T06:21:46;7.30;;;2.85;;
45236;SDS011;30973;51.442;3.580;2022-09-21T06:24:13;10.63;;;3.63;;
45236;SDS011;30973;51.442;3.580;2022-09-21T06:26:40;10.35;;;2.95;;
45236;SDS011;30973;51.442;3.580;2022-09-21T06:29:08;6.82;;;2.90;;
45236;SDS011;30973;51.442;3.580;2022-09-21T06:31:36;10.05;;;2.90;;
45236;SDS011;30973;51.442;3.580;2022-09-21T06:34:03;8.75;;;2.78;;
45236;SDS011;30973;51.442;3.580;2022-09-21T06:36:30;8.25;;;3.10;;
45236;SDS011;30973;51.442;3.580;2022-09-21T06:38:58;8.85;;;3.00;;
45236;SDS011;30973;51.442;3.580;2022-09-21T06:41:25;7.47;;;3.20;;
45236;SDS011;30973;51.442;3.580;2022-09-21T06:43:53;7.60;;;2.70;;
45236;SDS011;30973;51.442;3.580;2022-09-21T06:46:22;9.75;;;2.78;;
45236;SDS011;30973;51.442;3.580;2022-09-21T06:48:49;8.80;;;2.90;;
45236;SDS011;30973;51.442;3.580;2022-09-21T06:51:16;6.15;;;2.92;;
45236;SDS011;30973;51.442;3.580;2022-09-21T06:53:46;6.75;;;2.58;;
45236;SDS011;30973;51.442;3.580;2022-09-21T06:56:13;12.00;;;2.90;;
45236;SDS011;30973;51.442;3.580;2022-09-21T06:58:41;5.95;;;3.30;;
45236;SDS011;30973;51.442;3.580;2022-09-21T07:01:09;10.75;;;4.20;;
45236;SDS011;30973;51.442;3.580;2022-09-21T07:03:37;8.77;;;3.15;;
45236;SDS011;30973;51.442;3.580;2022-09-21T07:06:05;8.00;;;3.20;;
45236;SDS011;30973;51.442;3.580;2022-09-21T07:08:33;9.60;;;3.15;;
45236;SDS011;30973;51.442;3.580;2022-09-21T07:11:21;15.57;;;3.35;;
45236;SDS011;30973;51.442;3.580;2022-09-21T07:13:49;3.85;;;1.63;;
45236;SDS011;30973;51.442;3.580;2022-09-21T07:16:16;6.05;;;1.45;;
45236;SDS011;30973;51.442;3.580;2022-09-21T07:18:45;4.63;;;1.70;;
45236;SDS011;30973;51.442;3.580;2022-09-21T07:21:12;7.00;;;1.90;;
45236;SDS011;30973;51.442;3.580;2022-09-21T07:23:40;7.32;;;2.13;;
45236;SDS011;30973;51.442;3.580;2022-09-21T07:26:09;6.95;;;1.60;;
45236;SDS011;30973;51.442;3.580;2022-09-21T07:28:37;6.45;;;1.73;;
45236;SDS011;30973;51.442;3.580;2022-09-21T07:31:08;4.88;;;1.73;;
45236;SDS011;30973;51.442;3.580;2022-09-21T07:33:35;6.43;;;1.80;;
45236;SDS011;30973;51.442;3.580;2022-09-21T07:36:03;7.72;;;1.90;;
45236;SDS011;30973;51.442;3.580;2022-09-21T07:38:42;8.85;;;2.20;;
45236;SDS011;30973;51.442;3.580;2022-09-21T07:41:11;4.85;;;2.10;;
45236;SDS011;30973;51.442;3.580;2022-09-21T07:43:39;4.25;;;1.80;;
45236;SDS011;30973;51.442;3.580;2022-09-21T07:46:08;6.93;;;2.17;;
45236;SDS011;30973;51.442;3.580;2022-09-21T07:48:37;9.05;;;2.10;;
45236;SDS011;30973;51.442;3.580;2022-09-21T07:51:05;4.45;;;1.85;;
45236;SDS011;30973;51.442;3.580;2022-09-21T07:53:34;6.55;;;2.10;;
45236;SDS011;30973;51.442;3.580;2022-09-21T07:56:02;5.25;;;2.40;;
45236;SDS011;30973;51.442;3.580;2022-09-21T07:58:31;5.72;;;1.75;;
45236;SDS011;30973;51.442;3.580;2022-09-21T08:01:16;5.22;;;1.90;;
45236;SDS011;30973;51.442;3.580;2022-09-21T08:03:44;5.65;;;1.52;;
45236;SDS011;30973;51.442;3.580;2022-09-21T08:06:13;3.30;;;1.58;;
45236;SDS011;30973;51.442;3.580;2022-09-21T08:08:40;6.00;;;2.00;;
45236;SDS011;30973;51.442;3.580;2022-09-21T08:11:07;5.50;;;2.00;;
45236;SDS011;30973;51.442;3.580;2022-09-21T08:13:37;8.75;;;2.65;;
45236;SDS011;30973;51.442;3.580;2022-09-21T08:16:04;3.67;;;1.60;;
45236;SDS011;30973;51.442;3.580;2022-09-21T08:18:34;8.90;;;1.65;;
45236;SDS011;30973;51.442;3.580;2022-09-21T08:21:03;6.78;;;2.08;;
45236;SDS011;30973;51.442;3.580;2022-09-21T08:23:30;7.55;;;2.33;;
45236;SDS011;30973;51.442;3.580;2022-09-21T08:26:01;5.55;;;2.40;;
45236;SDS011;30973;51.442;3.580;2022-09-21T08:28:32;6.35;;;2.40;;
45236;SDS011;30973;51.442;3.580;2022-09-21T08:31:00;6.20;;;2.28;;
45236;SDS011;30973;51.442;3.580;2022-09-21T08:33:28;6.65;;;2.53;;
45236;SDS011;30973;51.442;3.580;2022-09-21T08:35:56;5.25;;;2.42;;
45236;SDS011;30973;51.442;3.580;2022-09-21T08:38:24;5.10;;;2.35;;
45236;SDS011;30973;51.442;3.580;2022-09-21T08:40:52;7.75;;;3.15;;
45236;SDS011;30973;51.442;3.580;2022-09-21T08:43:28;6.70;;;2.50;;
45236;SDS011;30973;51.442;3.580;2022-09-21T08:46:35;6.13;;;2.90;;
45236;SDS011;30973;51.442;3.580;2022-09-21T08:48:59;6.90;;;2.72;;
45236;SDS011;30973;51.442;3.580;2022-09-21T08:51:31;6.60;;;2.33;;
45236;SDS011;30973;51.442;3.580;2022-09-21T08:54:15;7.35;;;2.20;;
45236;SDS011;30973;51.442;3.580;2022-09-21T08:56:46;6.10;;;2.03;;
45236;SDS011;30973;51.442;3.580;2022-09-21T08:59:30;6.32;;;2.05;;
45236;SDS011;30973;51.442;3.580;2022-09-21T09:10:38;9.52;;;2.35;;
45236;SDS011;30973;51.442;3.580;2022-09-21T09:16:22;5.60;;;2.20;;
45236;SDS011;30973;51.442;3.580;2022-09-21T09:21:43;6.75;;;2.40;;
45236;SDS011;30973;51.442;3.580;2022-09-21T09:24:22;5.18;;;2.42;;
45236;SDS011;30973;51.442;3.580;2022-09-21T09:29:45;8.75;;;2.45;;
45236;SDS011;30973;51.442;3.580;2022-09-21T09:32:32;7.32;;;2.85;;
45236;SDS011;30973;51.442;3.580;2022-09-21T09:35:34;5.28;;;2.53;;
45236;SDS011;30973;51.442;3.580;2022-09-21T09:46:57;11.02;;;3.35;;
45236;SDS011;30973;51.442;3.580;2022-09-21T09:52:06;7.72;;;2.75;;
45236;SDS011;30973;51.442;3.580;2022-09-21T09:54:37;7.55;;;2.60;;
45236;SDS011;30973;51.442;3.580;2022-09-21T09:57:04;9.85;;;3.17;;
45236;SDS011;30973;51.442;3.580;2022-09-21T09:59:52;6.43;;;3.17;;
45236;SDS011;30973;51.442;3.580;2022-09-21T10:02:24;8.18;;;2.88;;
45236;SDS011;30973;51.442;3.580;2022-09-21T10:04:53;6.63;;;2.17;;
45236;SDS011;30973;51.442;3.580;2022-09-21T10:10:01;8.10;;;2.67;;
45236;SDS011;30973;51.442;3.580;2022-09-21T10:12:28;5.82;;;2.53;;
45236;SDS011;30973;51.442;3.580;2022-09-21T10:14:56;5.10;;;2.50;;
45236;SDS011;30973;51.442;3.580;2022-09-21T10:17:26;4.88;;;2.70;;
45236;SDS011;30973;51.442;3.580;2022-09-21T10:19:59;7.50;;;2.65;;
45236;SDS011;30973;51.442;3.580;2022-09-21T10:24:55;5.97;;;1.90;;
45236;SDS011;30973;51.442;3.580;2022-09-21T10:27:25;6.82;;;2.45;;
45236;SDS011;30973;51.442;3.580;2022-09-21T10:29:54;6.47;;;1.88;;
45236;SDS011;30973;51.442;3.580;2022-09-21T10:32:26;6.38;;;1.70;;
45236;SDS011;30973;51.442;3.580;2022-09-21T10:35:11;4.40;;;1.45;;
45236;SDS011;30973;51.442;3.580;2022-09-21T10:37:41;5.70;;;1.50;;
45236;SDS011;30973;51.442;3.580;2022-09-21T10:42:55;3.63;;;1.30;;
45236;SDS011;30973;51.442;3.580;2022-09-21T10:45:28;6.38;;;1.70;;
45236;SDS011;30973;51.442;3.580;2022-09-21T10:48:17;5.95;;;1.60;;
45236;SDS011;30973;51.442;3.580;2022-09-21T10:50:47;4.10;;;1.30;;
45236;SDS011;30973;51.442;3.580;2022-09-21T10:53:32;4.07;;;1.30;;
45236;SDS011;30973;51.442;3.580;2022-09-21T10:56:14;4.00;;;1.55;;
45236;SDS011;30973;51.442;3.580;2022-09-21T11:01:45;4.63;;;1.50;;
45236;SDS011;30973;51.442;3.580;2022-09-21T11:04:17;3.15;;;0.90;;
45236;SDS011;30973;51.442;3.580;2022-09-21T11:06:54;4.70;;;1.23;;
45236;SDS011;30973;51.442;3.580;2022-09-21T11:17:53;2.88;;;0.90;;
45236;SDS011;30973;51.442;3.580;2022-09-21T11:20:35;5.47;;;1.20;;
45236;SDS011;30973;51.442;3.580;2022-09-21T11:26:26;4.80;;;1.10;;
45236;SDS011;30973;51.442;3.580;2022-09-21T11:29:14;6.15;;;1.30;;
45236;SDS011;30973;51.442;3.580;2022-09-21T11:32:21;4.57;;;1.23;;
45236;SDS011;30973;51.442;3.580;2022-09-21T11:40:15;3.60;;;1.52;;
45236;SDS011;30973;51.442;3.580;2022-09-21T11:45:45;5.43;;;1.23;;
45236;SDS011;30973;51.442;3.580;2022-09-21T11:52:18;5.53;;;0.90;;
45236;SDS011;30973;51.442;3.580;2022-09-21T11:54:56;5.70;;;1.33;;
45236;SDS011;30973;51.442;3.580;2022-09-21T12:00:22;6.07;;;0.95;;
45236;SDS011;30973;51.442;3.580;2022-09-21T12:14:08;4.43;;;0.93;;
45236;SDS011;30973;51.442;3.580;2022-09-21T12:16:56;3.72;;;1.10;;
45236;SDS011;30973;51.442;3.580;2022-09-21T12:22:12;4.20;;;0.85;;
45236;SDS011;30973;51.442;3.580;2022-09-21T12:24:58;3.65;;;1.02;;
45236;SDS011;30973;51.442;3.580;2022-09-21T12:27:40;5.47;;;1.15;;
45236;SDS011;30973;51.442;3.580;2022-09-21T12:30:19;7.28;;;1.70;;
45236;SDS011;30973;51.442;3.580;2022-09-21T12:35:33;4.22;;;0.93;;
45236;SDS011;30973;51.442;3.580;2022-09-21T12:38:23;4.10;;;0.85;;
45236;SDS011;30973;51.442;3.580;2022-09-21T12:48:46;6.32;;;1.38;;
45236;SDS011;30973;51.442;3.580;2022-09-21T12:51:25;2.63;;;0.70;;
45236;SDS011;30973;51.442;3.580;2022-09-21T12:54:06;2.80;;;0.63;;
45236;SDS011;30973;51.442;3.580;2022-09-21T12:56:47;3.35;;;0.88;;
45236;SDS011;30973;51.442;3.580;2022-09-21T13:02:23;2.00;;;0.77;;
45236;SDS011;30973;51.442;3.580;2022-09-21T13:08:13;2.60;;;0.80;;
45236;SDS011;30973;51.442;3.580;2022-09-21T13:13:22;2.03;;;0.77;;
45236;SDS011;30973;51.442;3.580;2022-09-21T13:15:50;6.18;;;1.08;;
45236;SDS011;30973;51.442;3.580;2022-09-21T13:20:47;6.75;;;1.05;;
45236;SDS011;30973;51.442;3.580;2022-09-21T13:23:19;3.00;;;0.95;;
45236;SDS011;30973;51.442;3.580;2022-09-21T13:26:13;5.00;;;1.17;;
45236;SDS011;30973;51.442;3.580;2022-09-21T13:28:58;3.90;;;1.10;;
45236;SDS011;30973;51.442;3.580;2022-09-21T13:34:21;3.45;;;0.90;;
45236;SDS011;30973;51.442;3.580;2022-09-21T13:44:56;4.05;;;1.00;;
45236;SDS011;30973;51.442;3.580;2022-09-21T13:47:30;2.20;;;0.70;;
45236;SDS011;30973;51.442;3.580;2022-09-21T13:50:18;3.97;;;1.02;;
45236;SDS011;30973;51.442;3.580;2022-09-21T13:52:58;2.60;;;0.80;;
45236;SDS011;30973;51.442;3.580;2022-09-21T13:55:31;3.05;;;0.70;;
45236;SDS011;30973;51.442;3.580;2022-09-21T13:58:53;2.42;;;0.75;;
45236;SDS011;30973;51.442;3.580;2022-09-21T14:00:59;2.80;;;1.00;;
45236;SDS011;30973;51.442;3.580;2022-09-21T14:04:01;4.43;;;0.93;;
45236;SDS011;30973;51.442;3.580;2022-09-21T14:06:44;2.17;;;0.80;;
45236;SDS011;30973;51.442;3.580;2022-09-21T14:09:28;2.78;;;1.00;;
45236;SDS011;30973;51.442;3.580;2022-09-21T14:12:01;3.47;;;0.80;;
45236;SDS011;30973;51.442;3.580;2022-09-21T14:14:33;2.92;;;0.90;;
45236;SDS011;30973;51.442;3.580;2022-09-21T14:17:32;2.45;;;0.73;;
45236;SDS011;30973;51.442;3.580;2022-09-21T14:20:02;3.00;;;0.70;;
45236;SDS011;30973;51.442;3.580;2022-09-21T14:22:34;2.35;;;0.90;;
45236;SDS011;30973;51.442;3.580;2022-09-21T14:25:22;3.67;;;0.95;;
45236;SDS011;30973;51.442;3.580;2022-09-21T14:27:50;3.88;;;0.80;;
45236;SDS011;30973;51.442;3.580;2022-09-21T14:30:20;3.17;;;0.93;;
45236;SDS011;30973;51.442;3.580;2022-09-21T14:35:26;1.92;;;0.75;;
45236;SDS011;30973;51.442;3.580;2022-09-21T14:38:10;5.50;;;1.20;;
45236;SDS011;30973;51.442;3.580;2022-09-21T14:40:50;2.42;;;0.70;;
45236;SDS011;30973;51.442;3.580;2022-09-21T14:43:24;3.65;;;0.90;;
45236;SDS011;30973;51.442;3.580;2022-09-21T14:49:18;7.63;;;1.48;;
45236;SDS011;30973;51.442;3.580;2022-09-21T15:00:43;4.13;;;0.82;;
45236;SDS011;30973;51.442;3.580;2022-09-21T15:03:30;3.15;;;0.88;;
45236;SDS011;30973;51.442;3.580;2022-09-21T15:06:26;2.85;;;0.80;;
45236;SDS011;30973;51.442;3.580;2022-09-21T15:12:13;5.43;;;0.95;;
45236;SDS011;30973;51.442;3.580;2022-09-21T15:17:53;2.35;;;0.80;;
45236;SDS011;30973;51.442;3.580;2022-09-21T15:20:26;3.10;;;0.98;;
45236;SDS011;30973;51.442;3.580;2022-09-21T15:22:55;3.83;;;1.45;;
45236;SDS011;30973;51.442;3.580;2022-09-21T15:25:24;4.35;;;1.10;;
45236;SDS011;30973;51.442;3.580;2022-09-21T15:27:54;5.05;;;1.00;;
45236;SDS011;30973;51.442;3.580;2022-09-21T15:30:22;1.17;;;0.60;;
45236;SDS011;30973;51.442;3.580;2022-09-21T15:32:55;3.03;;;1.10;;
45236;SDS011;30973;51.442;3.580;2022-09-21T15:35:25;2.58;;;0.80;;
45236;SDS011;30973;51.442;3.580;2022-09-21T15:37:54;5.70;;;1.02;;
45236;SDS011;30973;51.442;3.580;2022-09-21T15:40:23;3.78;;;0.80;;
45236;SDS011;30973;51.442;3.580;2022-09-21T15:48:29;4.68;;;1.20;;
45236;SDS011;30973;51.442;3.580;2022-09-21T15:51:03;2.08;;;0.73;;
45236;SDS011;30973;51.442;3.580;2022-09-21T15:53:58;3.92;;;0.90;;
45236;SDS011;30973;51.442;3.580;2022-09-21T15:57:01;3.50;;;0.95;;
45236;SDS011;30973;51.442;3.580;2022-09-21T15:59:33;2.42;;;0.82;;
45236;SDS011;30973;51.442;3.580;2022-09-21T16:02:09;2.75;;;1.20;;
45236;SDS011;30973;51.442;3.580;2022-09-21T16:04:44;2.95;;;1.00;;
45236;SDS011;30973;51.442;3.580;2022-09-21T16:15:23;3.05;;;0.82;;
45236;SDS011;30973;51.442;3.580;2022-09-21T16:18:03;2.08;;;0.80;;
45236;SDS011;30973;51.442;3.580;2022-09-21T16:20:38;6.20;;;1.23;;
45236;SDS011;30973;51.442;3.580;2022-09-21T16:23:12;4.30;;;0.90;;
45236;SDS011;30973;51.442;3.580;2022-09-21T16:25:41;3.63;;;0.88;;
45236;SDS011;30973;51.442;3.580;2022-09-21T16:30:49;2.80;;;0.77;;
45236;SDS011;30973;51.442;3.580;2022-09-21T16:33:33;3.17;;;0.90;;
45236;SDS011;30973;51.442;3.580;2022-09-21T16:36:04;3.83;;;0.90;;
45236;SDS011;30973;51.442;3.580;2022-09-21T16:38:51;3.58;;;1.05;;
45236;SDS011;30973;51.442;3.580;2022-09-21T16:41:19;5.35;;;0.85;;
45236;SDS011;30973;51.442;3.580;2022-09-21T16:43:47;4.85;;;1.38;;
45236;SDS011;30973;51.442;3.580;2022-09-21T16:46:17;2.25;;;0.90;;
45236;SDS011;30973;51.442;3.580;2022-09-21T16:48:44;4.00;;;1.25;;
45236;SDS011;30973;51.442;3.580;2022-09-21T16:51:11;2.40;;;0.77;;
45236;SDS011;30973;51.442;3.580;2022-09-21T16:53:40;2.03;;;0.82;;
45236;SDS011;30973;51.442;3.580;2022-09-21T16:56:13;6.05;;;1.10;;
45236;SDS011;30973;51.442;3.580;2022-09-21T16:58:41;2.90;;;0.90;;
45236;SDS011;30973;51.442;3.580;2022-09-21T17:01:13;4.63;;;1.00;;
45236;SDS011;30973;51.442;3.580;2022-09-21T17:03:45;3.47;;;0.90;;
45236;SDS011;30973;51.442;3.580;2022-09-21T17:06:17;4.07;;;0.90;;
45236;SDS011;30973;51.442;3.580;2022-09-21T17:08:47;2.58;;;0.90;;
45236;SDS011;30973;51.442;3.580;2022-09-21T17:11:15;2.17;;;0.75;;
45236;SDS011;30973;51.442;3.580;2022-09-21T17:13:48;2.92;;;1.00;;
45236;SDS011;30973;51.442;3.580;2022-09-21T17:16:17;3.28;;;1.20;;
45236;SDS011;30973;51.442;3.580;2022-09-21T17:18:48;2.78;;;1.20;;
45236;SDS011;30973;51.442;3.580;2022-09-21T17:21:15;3.38;;;0.88;;
45236;SDS011;30973;51.442;3.580;2022-09-21T17:23:42;4.47;;;1.30;;
45236;SDS011;30973;51.442;3.580;2022-09-21T17:26:12;2.97;;;1.00;;
45236;SDS011;30973;51.442;3.580;2022-09-21T17:28:44;2.60;;;0.90;;
45236;SDS011;30973;51.442;3.580;2022-09-21T17:31:13;3.03;;;0.90;;
45236;SDS011;30973;51.442;3.580;2022-09-21T17:33:44;4.82;;;1.20;;
45236;SDS011;30973;51.442;3.580;2022-09-21T17:36:13;4.63;;;1.00;;
45236;SDS011;30973;51.442;3.580;2022-09-21T17:38:41;2.35;;;0.98;;
45236;SDS011;30973;51.442;3.580;2022-09-21T17:41:14;3.85;;;1.00;;
45236;SDS011;30973;51.442;3.580;2022-09-21T17:46:47;8.57;;;1.30;;
45236;SDS011;30973;51.442;3.580;2022-09-21T17:49:28;3.45;;;0.90;;
45236;SDS011;30973;51.442;3.580;2022-09-21T17:51:56;4.82;;;1.40;;
45236;SDS011;30973;51.442;3.580;2022-09-21T17:54:41;4.32;;;1.10;;
45236;SDS011;30973;51.442;3.580;2022-09-21T17:57:25;3.22;;;1.13;;
45236;SDS011;30973;51.442;3.580;2022-09-21T18:00:36;3.78;;;1.02;;
45236;SDS011;30973;51.442;3.580;2022-09-21T18:03:23;4.80;;;1.20;;
45236;SDS011;30973;51.442;3.580;2022-09-21T18:05:54;5.15;;;1.10;;
45236;SDS011;30973;51.442;3.580;2022-09-21T18:08:26;4.78;;;1.25;;
45236;SDS011;30973;51.442;3.580;2022-09-21T18:10:57;4.00;;;1.40;;
45236;SDS011;30973;51.442;3.580;2022-09-21T18:13:50;5.18;;;1.67;;
45236;SDS011;30973;51.442;3.580;2022-09-21T18:22:13;3.83;;;1.30;;
45236;SDS011;30973;51.442;3.580;2022-09-21T18:24:51;4.15;;;1.30;;
45236;SDS011;30973;51.442;3.580;2022-09-21T18:27:21;3.28;;;1.20;;
45236;SDS011;30973;51.442;3.580;2022-09-21T18:29:49;7.57;;;1.52;;
45236;SDS011;30973;51.442;3.580;2022-09-21T18:43:33;5.70;;;3.35;;
45236;SDS011;30973;51.442;3.580;2022-09-21T18:46:07;6.38;;;2.90;;